Terminal Aerodrome Forecast
Issued by NWS

Home | Current Version | Previous Version | Text Only | Print | Product List | Glossary On
Versions: 1 2 3 4 5 6 7 8 9 10 11 12 13 14 15
000
FTUS44 KJAN 281720
TAFGTR
TAF
KGTR 281720Z 2818/2918 22008KT P6SM VCTS SCT010 BKN020CB
     FM282100 24010KT P6SM VCTS SCT025 BKN035CB
     FM290100 19003KT 5SM BR VCSH SCT040 BKN100
     FM291400 27008KT P6SM VCSH SCT025 OVC100=

USA.gov is the U.S. government's official web portal to all federal, state and local government web resources and services.